METAR AND TAF INFORMATION
METAR FOR KHHR
ADDS - METARS form results

(1625 UTC 15 April 2021)
Data provider http://aviationweather.gov/metar/data/
 
METAR text: KHHR 151553Z VRB03KT 10SM SCT029 14/07 A3004 RMK AO2 SLP172 T01390072
Conditions at: KHHR (HAWTHORNE , CA, US) observed 1553 UTC 15 April 2021
Temperature: 13.9°C (57°F)
Dewpoint: 7.2°C (45°F) [RH = 64%]
Pressure (altimeter): 30.04 inches Hg (1017.4 mb)
[Sea-level pressure: 1017.2 mb]
Winds: variable direction winds at 3 MPH (3 knots; 1.5 m/s)
Visibility: 10 or more miles (16+ km)
Ceiling: at least 12,000 feet AGL
Clouds: scattered clouds at 2900 feet AGL
Weather: no significant weather observed at this time

 AIRPORT MAP

 RUNWAY INFORMATION
Runway 07 Runway length 4956 ft Runway width 100 ft
Runway elevation 64 ft Runway displaced threshold 971 ft Runway heading 87
Runway 25 Runway length 4956 ft Runway width 100 ft
Runway elevation 61 ft Runway displaced threshold 463 ft Runway heading 267

 AIRPORT FREQUENCIES
Type APP Name SOCAL APP Frequency 124.3 MHZ
Type ATIS Name ATIS Frequency 118.4 MHZ
Type CTAF Name CTAF Frequency 121.1 MHZ
Type DEP Name SOCAL DEP Frequency 124.3 MHZ
Type GND Name GND Frequency 125.1 MHZ
Type RDO Name HAWTHORNE Frequency 122.2 MHZ
Type TWR Name TWR Frequency 121.1 MHZ

 AIRPORT NEAR NAVIGATION AIDS

-